sensor_id;sensor_type;location;lat;lon;timestamp;temperature;humidity
45843;DHT22;31563;51.744;8.252;2023-03-18T00:01:34;24.90;37.70
45843;DHT22;31563;51.744;8.252;2023-03-18T00:04:03;24.90;37.70
45843;DHT22;31563;51.744;8.252;2023-03-18T00:06:31;24.80;37.70
45843;DHT22;31563;51.744;8.252;2023-03-18T00:09:01;24.80;37.70
45843;DHT22;31563;51.744;8.252;2023-03-18T00:11:29;24.80;37.70
45843;DHT22;31563;51.744;8.252;2023-03-18T00:13:58;24.80;37.80
45843;DHT22;31563;51.744;8.252;2023-03-18T00:16:26;24.70;37.70
45843;DHT22;31563;51.744;8.252;2023-03-18T00:18:54;24.70;37.70
45843;DHT22;31563;51.744;8.252;2023-03-18T00:21:22;24.70;37.80
45843;DHT22;31563;51.744;8.252;2023-03-18T00:23:51;24.70;37.80
45843;DHT22;31563;51.744;8.252;2023-03-18T00:26:24;24.70;37.90
45843;DHT22;31563;51.744;8.252;2023-03-18T00:28:54;24.60;37.80
45843;DHT22;31563;51.744;8.252;2023-03-18T00:31:24;24.60;37.80
45843;DHT22;31563;51.744;8.252;2023-03-18T00:33:53;24.60;37.80
45843;DHT22;31563;51.744;8.252;2023-03-18T00:36:21;24.60;37.80
45843;DHT22;31563;51.744;8.252;2023-03-18T00:38:52;24.50;37.80
45843;DHT22;31563;51.744;8.252;2023-03-18T00:41:26;24.50;37.80
45843;DHT22;31563;51.744;8.252;2023-03-18T00:43:55;24.50;37.90
45843;DHT22;31563;51.744;8.252;2023-03-18T00:46:25;24.50;37.90
45843;DHT22;31563;51.744;8.252;2023-03-18T00:48:55;24.50;37.90
45843;DHT22;31563;51.744;8.252;2023-03-18T00:51:27;24.50;38.00
45843;DHT22;31563;51.744;8.252;2023-03-18T00:53:56;24.50;38.00
45843;DHT22;31563;51.744;8.252;2023-03-18T00:56:28;24.40;37.90
45843;DHT22;31563;51.744;8.252;2023-03-18T00:58:58;24.40;38.00
45843;DHT22;31563;51.744;8.252;2023-03-18T01:01:27;24.40;38.00
45843;DHT22;31563;51.744;8.252;2023-03-18T01:03:55;24.40;38.00
45843;DHT22;31563;51.744;8.252;2023-03-18T01:06:26;24.40;38.10
45843;DHT22;31563;51.744;8.252;2023-03-18T01:08:56;24.30;38.00
45843;DHT22;31563;51.744;8.252;2023-03-18T01:11:28;24.30;38.10
45843;DHT22;31563;51.744;8.252;2023-03-18T01:13:57;24.30;38.10
45843;DHT22;31563;51.744;8.252;2023-03-18T01:16:25;24.30;38.10
45843;DHT22;31563;51.744;8.252;2023-03-18T01:18:54;24.30;38.10
45843;DHT22;31563;51.744;8.252;2023-03-18T01:21:22;24.30;38.10
45843;DHT22;31563;51.744;8.252;2023-03-18T01:23:51;24.20;38.10
45843;DHT22;31563;51.744;8.252;2023-03-18T01:26:19;24.20;38.20
45843;DHT22;31563;51.744;8.252;2023-03-18T01:28:49;24.20;38.20
45843;DHT22;31563;51.744;8.252;2023-03-18T01:31:17;24.20;38.20
45843;DHT22;31563;51.744;8.252;2023-03-18T01:33:46;24.20;38.20
45843;DHT22;31563;51.744;8.252;2023-03-18T01:36:14;24.10;38.20
45843;DHT22;31563;51.744;8.252;2023-03-18T01:38:43;24.10;38.20
45843;DHT22;31563;51.744;8.252;2023-03-18T01:41:12;24.10;38.20
45843;DHT22;31563;51.744;8.252;2023-03-18T01:43:42;24.10;38.20
45843;DHT22;31563;51.744;8.252;2023-03-18T01:46:35;24.10;38.90
45843;DHT22;31563;51.744;8.252;2023-03-18T01:49:08;24.00;38.20
45843;DHT22;31563;51.744;8.252;2023-03-18T01:51:39;24.00;38.30
45843;DHT22;31563;51.744;8.252;2023-03-18T01:54:09;24.00;38.20
45843;DHT22;31563;51.744;8.252;2023-03-18T01:56:40;24.00;38.20
45843;DHT22;31563;51.744;8.252;2023-03-18T01:59:10;24.00;38.40
45843;DHT22;31563;51.744;8.252;2023-03-18T02:01:41;24.00;38.30
45843;DHT22;31563;51.744;8.252;2023-03-18T02:04:12;23.90;38.30
45843;DHT22;31563;51.744;8.252;2023-03-18T02:06:44;24.00;38.40
45843;DHT22;31563;51.744;8.252;2023-03-18T02:09:12;23.90;38.30
45843;DHT22;31563;51.744;8.252;2023-03-18T02:11:45;23.90;38.40
45843;DHT22;31563;51.744;8.252;2023-03-18T02:14:17;23.80;38.30
45843;DHT22;31563;51.744;8.252;2023-03-18T02:16:59;23.90;38.40
45843;DHT22;31563;51.744;8.252;2023-03-18T02:19:39;23.90;38.40
45843;DHT22;31563;51.744;8.252;2023-03-18T02:22:17;23.90;38.40
45843;DHT22;31563;51.744;8.252;2023-03-18T02:24:54;23.90;38.40
45843;DHT22;31563;51.744;8.252;2023-03-18T02:27:26;23.80;38.40
45843;DHT22;31563;51.744;8.252;2023-03-18T02:29:59;23.80;38.40
45843;DHT22;31563;51.744;8.252;2023-03-18T02:32:29;23.80;38.40
45843;DHT22;31563;51.744;8.252;2023-03-18T02:35:00;23.80;38.40
45843;DHT22;31563;51.744;8.252;2023-03-18T02:37:29;23.70;38.40
45843;DHT22;31563;51.744;8.252;2023-03-18T02:40:11;23.70;38.50
45843;DHT22;31563;51.744;8.252;2023-03-18T02:42:41;23.70;38.50
45843;DHT22;31563;51.744;8.252;2023-03-18T02:45:11;23.70;38.50
45843;DHT22;31563;51.744;8.252;2023-03-18T02:47:42;23.70;38.50
45843;DHT22;31563;51.744;8.252;2023-03-18T02:50:11;23.60;38.50
45843;DHT22;31563;51.744;8.252;2023-03-18T02:52:39;23.60;38.50
45843;DHT22;31563;51.744;8.252;2023-03-18T02:55:08;23.60;38.40
45843;DHT22;31563;51.744;8.252;2023-03-18T02:57:36;23.60;38.40
45843;DHT22;31563;51.744;8.252;2023-03-18T03:00:07;23.50;38.40
45843;DHT22;31563;51.744;8.252;2023-03-18T03:02:36;23.50;38.40
45843;DHT22;31563;51.744;8.252;2023-03-18T03:05:05;23.50;38.50
45843;DHT22;31563;51.744;8.252;2023-03-18T03:07:34;23.50;38.60
45843;DHT22;31563;51.744;8.252;2023-03-18T03:10:03;23.60;38.60
45843;DHT22;31563;51.744;8.252;2023-03-18T03:12:31;23.50;38.50
45843;DHT22;31563;51.744;8.252;2023-03-18T03:15:00;23.50;38.50
45843;DHT22;31563;51.744;8.252;2023-03-18T03:17:29;23.50;38.60
45843;DHT22;31563;51.744;8.252;2023-03-18T03:19:59;23.50;38.60
45843;DHT22;31563;51.744;8.252;2023-03-18T03:22:27;23.50;38.60
45843;DHT22;31563;51.744;8.252;2023-03-18T03:24:56;23.40;38.60
45843;DHT22;31563;51.744;8.252;2023-03-18T03:27:24;23.40;38.60
45843;DHT22;31563;51.744;8.252;2023-03-18T03:29:53;23.40;38.60
45843;DHT22;31563;51.744;8.252;2023-03-18T03:32:21;23.40;38.60
45843;DHT22;31563;51.744;8.252;2023-03-18T03:34:51;23.40;38.60
45843;DHT22;31563;51.744;8.252;2023-03-18T03:37:19;23.40;38.60
45843;DHT22;31563;51.744;8.252;2023-03-18T03:39:47;23.40;38.60
45843;DHT22;31563;51.744;8.252;2023-03-18T03:42:16;23.30;38.60
45843;DHT22;31563;51.744;8.252;2023-03-18T03:44:44;23.30;38.60
45843;DHT22;31563;51.744;8.252;2023-03-18T03:47:13;23.30;38.60
45843;DHT22;31563;51.744;8.252;2023-03-18T03:49:41;23.30;38.60
45843;DHT22;31563;51.744;8.252;2023-03-18T03:52:11;23.20;38.70
45843;DHT22;31563;51.744;8.252;2023-03-18T03:54:39;23.20;38.70
45843;DHT22;31563;51.744;8.252;2023-03-18T03:57:07;23.20;38.70
45843;DHT22;31563;51.744;8.252;2023-03-18T03:59:36;23.20;38.80
45843;DHT22;31563;51.744;8.252;2023-03-18T04:02:04;23.10;38.70
45843;DHT22;31563;51.744;8.252;2023-03-18T04:04:32;23.10;38.80
45843;DHT22;31563;51.744;8.252;2023-03-18T04:07:01;23.10;38.80
45843;DHT22;31563;51.744;8.252;2023-03-18T04:09:31;23.00;38.80
45843;DHT22;31563;51.744;8.252;2023-03-18T04:12:01;23.10;38.80
45843;DHT22;31563;51.744;8.252;2023-03-18T04:14:29;23.10;38.80
45843;DHT22;31563;51.744;8.252;2023-03-18T04:16:57;23.00;38.80
45843;DHT22;31563;51.744;8.252;2023-03-18T04:19:26;23.10;38.80
45843;DHT22;31563;51.744;8.252;2023-03-18T04:21:55;23.00;38.80
45843;DHT22;31563;51.744;8.252;2023-03-18T04:24:23;23.00;38.80
45843;DHT22;31563;51.744;8.252;2023-03-18T04:26:53;23.00;38.80
45843;DHT22;31563;51.744;8.252;2023-03-18T04:29:21;23.00;38.80
45843;DHT22;31563;51.744;8.252;2023-03-18T04:31:50;23.00;38.90
45843;DHT22;31563;51.744;8.252;2023-03-18T04:34:18;23.00;38.90
45843;DHT22;31563;51.744;8.252;2023-03-18T04:36:46;23.00;38.80
45843;DHT22;31563;51.744;8.252;2023-03-18T04:39:14;23.00;38.80
45843;DHT22;31563;51.744;8.252;2023-03-18T04:41:42;23.00;38.80
45843;DHT22;31563;51.744;8.252;2023-03-18T04:44:12;23.00;38.80
45843;DHT22;31563;51.744;8.252;2023-03-18T04:46:41;22.90;38.80
45843;DHT22;31563;51.744;8.252;2023-03-18T04:49:09;23.00;38.90
45843;DHT22;31563;51.744;8.252;2023-03-18T04:51:37;23.00;38.90
45843;DHT22;31563;51.744;8.252;2023-03-18T04:54:05;23.10;38.90
45843;DHT22;31563;51.744;8.252;2023-03-18T04:56:34;23.10;38.90
45843;DHT22;31563;51.744;8.252;2023-03-18T04:59:02;23.10;38.80
45843;DHT22;31563;51.744;8.252;2023-03-18T05:01:32;23.10;38.80
45843;DHT22;31563;51.744;8.252;2023-03-18T05:04:00;23.10;38.80
45843;DHT22;31563;51.744;8.252;2023-03-18T05:06:30;23.10;38.80
45843;DHT22;31563;51.744;8.252;2023-03-18T05:08:59;23.20;38.80
45843;DHT22;31563;51.744;8.252;2023-03-18T05:11:28;23.20;38.80
45843;DHT22;31563;51.744;8.252;2023-03-18T05:13:56;23.20;38.70
45843;DHT22;31563;51.744;8.252;2023-03-18T05:16:24;23.20;38.60
45843;DHT22;31563;51.744;8.252;2023-03-18T05:18:55;23.20;38.60
45843;DHT22;31563;51.744;8.252;2023-03-18T05:21:22;23.20;38.60
45843;DHT22;31563;51.744;8.252;2023-03-18T05:23:51;23.20;38.60
45843;DHT22;31563;51.744;8.252;2023-03-18T05:26:19;23.20;38.60
45843;DHT22;31563;51.744;8.252;2023-03-18T05:28:47;23.20;38.60
45843;DHT22;31563;51.744;8.252;2023-03-18T05:31:15;23.20;38.60
45843;DHT22;31563;51.744;8.252;2023-03-18T05:33:44;23.20;38.50
45843;DHT22;31563;51.744;8.252;2023-03-18T05:36:14;23.20;38.50
45843;DHT22;31563;51.744;8.252;2023-03-18T05:38:42;23.20;38.50
45843;DHT22;31563;51.744;8.252;2023-03-18T05:41:10;23.20;38.50
45843;DHT22;31563;51.744;8.252;2023-03-18T05:43:39;23.20;38.50
45843;DHT22;31563;51.744;8.252;2023-03-18T05:46:07;23.20;38.40
45843;DHT22;31563;51.744;8.252;2023-03-18T05:48:35;23.20;38.40
45843;DHT22;31563;51.744;8.252;2023-03-18T05:51:04;23.20;38.40
45843;DHT22;31563;51.744;8.252;2023-03-18T05:53:34;23.20;38.50
45843;DHT22;31563;51.744;8.252;2023-03-18T05:56:02;23.20;38.50
45843;DHT22;31563;51.744;8.252;2023-03-18T05:58:31;23.20;38.40
45843;DHT22;31563;51.744;8.252;2023-03-18T06:01:00;23.30;38.40
45843;DHT22;31563;51.744;8.252;2023-03-18T06:03:28;23.30;38.40
45843;DHT22;31563;51.744;8.252;2023-03-18T06:05:57;23.30;38.30
45843;DHT22;31563;51.744;8.252;2023-03-18T06:08:26;23.30;38.30
45843;DHT22;31563;51.744;8.252;2023-03-18T06:10:56;23.30;38.30
45843;DHT22;31563;51.744;8.252;2023-03-18T06:13:24;23.30;38.30
45843;DHT22;31563;51.744;8.252;2023-03-18T06:15:55;23.40;38.40
45843;DHT22;31563;51.744;8.252;2023-03-18T06:18:24;23.40;38.30
45843;DHT22;31563;51.744;8.252;2023-03-18T06:20:53;23.40;39.00
45843;DHT22;31563;51.744;8.252;2023-03-18T06:23:22;23.50;38.20
45843;DHT22;31563;51.744;8.252;2023-03-18T06:25:50;23.50;38.20
45843;DHT22;31563;51.744;8.252;2023-03-18T06:28:20;23.40;38.10
45843;DHT22;31563;51.744;8.252;2023-03-18T06:30:48;23.50;38.20
45843;DHT22;31563;51.744;8.252;2023-03-18T06:33:16;23.50;38.20
45843;DHT22;31563;51.744;8.252;2023-03-18T06:35:46;23.50;38.20
45843;DHT22;31563;51.744;8.252;2023-03-18T06:38:15;23.60;38.20
45843;DHT22;31563;51.744;8.252;2023-03-18T06:40:44;23.60;38.10
45843;DHT22;31563;51.744;8.252;2023-03-18T06:43:13;23.70;38.20
45843;DHT22;31563;51.744;8.252;2023-03-18T06:45:42;23.80;38.10
45843;DHT22;31563;51.744;8.252;2023-03-18T06:48:11;23.90;38.00
45843;DHT22;31563;51.744;8.252;2023-03-18T06:50:40;24.00;37.70
45843;DHT22;31563;51.744;8.252;2023-03-18T06:53:09;24.00;37.80
45843;DHT22;31563;51.744;8.252;2023-03-18T06:55:38;24.00;37.70
45843;DHT22;31563;51.744;8.252;2023-03-18T06:58:07;24.00;37.60
45843;DHT22;31563;51.744;8.252;2023-03-18T07:00:36;24.10;37.60
45843;DHT22;31563;51.744;8.252;2023-03-18T07:03:08;24.10;37.50
45843;DHT22;31563;51.744;8.252;2023-03-18T07:05:37;24.00;37.40
45843;DHT22;31563;51.744;8.252;2023-03-18T07:08:05;24.10;37.70
45843;DHT22;31563;51.744;8.252;2023-03-18T07:10:34;24.30;37.80
45843;DHT22;31563;51.744;8.252;2023-03-18T07:13:02;24.50;37.70
45843;DHT22;31563;51.744;8.252;2023-03-18T07:15:30;24.60;37.30
45843;DHT22;31563;51.744;8.252;2023-03-18T07:18:00;24.80;37.50
45843;DHT22;31563;51.744;8.252;2023-03-18T07:20:32;25.00;36.90
45843;DHT22;31563;51.744;8.252;2023-03-18T07:23:03;25.10;36.40
45843;DHT22;31563;51.744;8.252;2023-03-18T07:25:31;25.00;36.50
45843;DHT22;31563;51.744;8.252;2023-03-18T07:28:00;25.00;36.60
45843;DHT22;31563;51.744;8.252;2023-03-18T07:30:29;24.90;36.50
45843;DHT22;31563;51.744;8.252;2023-03-18T07:32:57;24.90;36.50
45843;DHT22;31563;51.744;8.252;2023-03-18T07:35:25;25.00;36.60
45843;DHT22;31563;51.744;8.252;2023-03-18T07:37:56;25.00;36.40
45843;DHT22;31563;51.744;8.252;2023-03-18T07:40:24;25.00;36.40
45843;DHT22;31563;51.744;8.252;2023-03-18T07:42:52;25.00;36.50
45843;DHT22;31563;51.744;8.252;2023-03-18T07:45:21;25.00;36.40
45843;DHT22;31563;51.744;8.252;2023-03-18T07:47:49;25.10;36.60
45843;DHT22;31563;51.744;8.252;2023-03-18T07:50:18;25.20;36.60
45843;DHT22;31563;51.744;8.252;2023-03-18T07:52:46;25.50;36.80
45843;DHT22;31563;51.744;8.252;2023-03-18T07:55:16;25.60;36.40
45843;DHT22;31563;51.744;8.252;2023-03-18T07:57:45;25.70;36.10
45843;DHT22;31563;51.744;8.252;2023-03-18T08:00:15;25.60;35.90
45843;DHT22;31563;51.744;8.252;2023-03-18T08:02:44;25.60;35.90
45843;DHT22;31563;51.744;8.252;2023-03-18T08:05:12;25.60;35.90
45843;DHT22;31563;51.744;8.252;2023-03-18T08:07:41;25.60;36.00
45843;DHT22;31563;51.744;8.252;2023-03-18T08:10:10;25.60;36.10
45843;DHT22;31563;51.744;8.252;2023-03-18T08:12:42;25.60;36.00
45843;DHT22;31563;51.744;8.252;2023-03-18T08:15:18;25.60;36.10
45843;DHT22;31563;51.744;8.252;2023-03-18T08:17:48;25.70;36.10
45843;DHT22;31563;51.744;8.252;2023-03-18T08:20:16;25.60;35.80
45843;DHT22;31563;51.744;8.252;2023-03-18T08:22:44;25.60;35.80
45843;DHT22;31563;51.744;8.252;2023-03-18T08:25:13;25.50;35.80
45843;DHT22;31563;51.744;8.252;2023-03-18T08:27:42;25.50;35.90
45843;DHT22;31563;51.744;8.252;2023-03-18T08:30:12;25.50;36.00
45843;DHT22;31563;51.744;8.252;2023-03-18T08:32:40;25.50;36.00
45843;DHT22;31563;51.744;8.252;2023-03-18T08:35:10;25.50;36.00
45843;DHT22;31563;51.744;8.252;2023-03-18T08:37:38;25.40;36.00
45843;DHT22;31563;51.744;8.252;2023-03-18T08:40:08;25.50;36.10
45843;DHT22;31563;51.744;8.252;2023-03-18T08:42:37;25.50;36.10
45843;DHT22;31563;51.744;8.252;2023-03-18T08:45:08;25.50;36.10
45843;DHT22;31563;51.744;8.252;2023-03-18T08:47:37;25.60;36.10
45843;DHT22;31563;51.744;8.252;2023-03-18T08:50:05;25.60;36.10
45843;DHT22;31563;51.744;8.252;2023-03-18T08:52:34;25.60;36.10
45843;DHT22;31563;51.744;8.252;2023-03-18T08:55:05;25.60;36.10
45843;DHT22;31563;51.744;8.252;2023-03-18T08:57:34;25.70;36.20
45843;DHT22;31563;51.744;8.252;2023-03-18T09:00:03;25.80;36.30
45843;DHT22;31563;51.744;8.252;2023-03-18T09:02:34;25.90;36.30
45843;DHT22;31563;51.744;8.252;2023-03-18T09:05:04;26.10;36.40
45843;DHT22;31563;51.744;8.252;2023-03-18T09:07:32;26.30;35.90
45843;DHT22;31563;51.744;8.252;2023-03-18T09:10:00;26.40;36.00
45843;DHT22;31563;51.744;8.252;2023-03-18T09:12:30;26.50;35.90
45843;DHT22;31563;51.744;8.252;2023-03-18T09:14:58;26.80;35.90
45843;DHT22;31563;51.744;8.252;2023-03-18T09:17:27;26.90;35.70
45843;DHT22;31563;51.744;8.252;2023-03-18T09:20:17;27.10;35.70
45843;DHT22;31563;51.744;8.252;2023-03-18T09:22:45;27.30;35.70
45843;DHT22;31563;51.744;8.252;2023-03-18T09:25:17;27.50;35.60
45843;DHT22;31563;51.744;8.252;2023-03-18T09:27:45;27.60;35.10
45843;DHT22;31563;51.744;8.252;2023-03-18T09:30:14;27.60;34.90
45843;DHT22;31563;51.744;8.252;2023-03-18T09:32:42;27.70;35.00
45843;DHT22;31563;51.744;8.252;2023-03-18T09:35:11;27.90;35.20
45843;DHT22;31563;51.744;8.252;2023-03-18T09:37:41;28.40;35.70
45843;DHT22;31563;51.744;8.252;2023-03-18T09:40:17;28.70;34.20
45843;DHT22;31563;51.744;8.252;2023-03-18T09:42:57;28.60;34.20
45843;DHT22;31563;51.744;8.252;2023-03-18T09:45:30;29.40;35.50
45843;DHT22;31563;51.744;8.252;2023-03-18T09:51:24;30.30;33.30
45843;DHT22;31563;51.744;8.252;2023-03-18T09:53:58;30.00;32.50
45843;DHT22;31563;51.744;8.252;2023-03-18T09:56:29;29.60;32.50
45843;DHT22;31563;51.744;8.252;2023-03-18T09:59:01;29.50;33.60
45843;DHT22;31563;51.744;8.252;2023-03-18T10:01:32;30.50;34.20
45843;DHT22;31563;51.744;8.252;2023-03-18T10:04:05;31.90;34.70
45843;DHT22;31563;51.744;8.252;2023-03-18T10:06:40;31.90;31.90
45843;DHT22;31563;51.744;8.252;2023-03-18T10:09:15;32.70;33.20
45843;DHT22;31563;51.744;8.252;2023-03-18T10:11:48;33.70;32.70
45843;DHT22;31563;51.744;8.252;2023-03-18T10:14:31;34.30;31.20
45843;DHT22;31563;51.744;8.252;2023-03-18T10:17:07;34.30;29.80
45843;DHT22;31563;51.744;8.252;2023-03-18T10:19:41;33.80;29.80
45843;DHT22;31563;51.744;8.252;2023-03-18T10:22:29;33.50;29.80
45843;DHT22;31563;51.744;8.252;2023-03-18T10:25:11;33.00;29.90
45843;DHT22;31563;51.744;8.252;2023-03-18T10:27:58;32.40;30.00
45843;DHT22;31563;51.744;8.252;2023-03-18T10:30:36;32.20;30.90
45843;DHT22;31563;51.744;8.252;2023-03-18T10:33:14;32.30;31.50
45843;DHT22;31563;51.744;8.252;2023-03-18T10:35:47;32.40;31.10
45843;DHT22;31563;51.744;8.252;2023-03-18T10:38:23;33.00;32.00
45843;DHT22;31563;51.744;8.252;2023-03-18T10:40:54;33.50;31.60
45843;DHT22;31563;51.744;8.252;2023-03-18T10:43:26;34.10;31.30
45843;DHT22;31563;51.744;8.252;2023-03-18T10:46:00;34.30;30.40
45843;DHT22;31563;51.744;8.252;2023-03-18T10:48:31;34.30;30.10
45843;DHT22;31563;51.744;8.252;2023-03-18T10:51:09;34.60;30.50
45843;DHT22;31563;51.744;8.252;2023-03-18T10:53:43;34.70;30.00
45843;DHT22;31563;51.744;8.252;2023-03-18T10:56:15;34.70;29.80
45843;DHT22;31563;51.744;8.252;2023-03-18T10:58:43;34.20;29.50
45843;DHT22;31563;51.744;8.252;2023-03-18T11:01:14;34.10;30.00
45843;DHT22;31563;51.744;8.252;2023-03-18T11:03:50;33.90;29.90
45843;DHT22;31563;51.744;8.252;2023-03-18T11:06:23;34.10;30.60
45843;DHT22;31563;51.744;8.252;2023-03-18T11:09:03;34.70;30.60
45843;DHT22;31563;51.744;8.252;2023-03-18T11:11:34;35.20;30.10
45843;DHT22;31563;51.744;8.252;2023-03-18T11:14:04;35.50;29.70
45843;DHT22;31563;51.744;8.252;2023-03-18T11:16:37;35.50;30.00
45843;DHT22;31563;51.744;8.252;2023-03-18T11:19:19;36.30;30.10
45843;DHT22;31563;51.744;8.252;2023-03-18T11:21:59;37.00;29.90
45843;DHT22;31563;51.744;8.252;2023-03-18T11:24:28;37.50;29.40
45843;DHT22;31563;51.744;8.252;2023-03-18T11:27:26;37.10;28.50
45843;DHT22;31563;51.744;8.252;2023-03-18T11:29:57;37.40;29.70
45843;DHT22;31563;51.744;8.252;2023-03-18T11:32:28;38.20;29.30
45843;DHT22;31563;51.744;8.252;2023-03-18T11:34:59;38.50;28.90
45843;DHT22;31563;51.744;8.252;2023-03-18T11:37:31;38.80;28.80
45843;DHT22;31563;51.744;8.252;2023-03-18T11:40:24;39.20;28.60
45843;DHT22;31563;51.744;8.252;2023-03-18T11:42:58;39.60;28.70
45843;DHT22;31563;51.744;8.252;2023-03-18T11:45:46;39.90;28.10
45843;DHT22;31563;51.744;8.252;2023-03-18T11:48:20;39.90;28.40
45843;DHT22;31563;51.744;8.252;2023-03-18T11:51:05;40.10;28.00
45843;DHT22;31563;51.744;8.252;2023-03-18T11:53:47;39.60;28.00
45843;DHT22;31563;51.744;8.252;2023-03-18T11:56:22;39.50;28.40
45843;DHT22;31563;51.744;8.252;2023-03-18T11:59:10;40.00;28.40
45843;DHT22;31563;51.744;8.252;2023-03-18T12:01:46;40.60;28.10
45843;DHT22;31563;51.744;8.252;2023-03-18T12:04:41;40.90;28.00
45843;DHT22;31563;51.744;8.252;2023-03-18T12:07:39;41.00;28.00
45843;DHT22;31563;51.744;8.252;2023-03-18T12:10:16;40.90;27.80
45843;DHT22;31563;51.744;8.252;2023-03-18T12:12:54;40.90;27.70
45843;DHT22;31563;51.744;8.252;2023-03-18T12:15:36;41.00;27.80
45843;DHT22;31563;51.744;8.252;2023-03-18T12:18:13;41.10;27.90
45843;DHT22;31563;51.744;8.252;2023-03-18T12:20:48;41.20;27.90
45843;DHT22;31563;51.744;8.252;2023-03-18T12:23:38;41.20;27.90
45843;DHT22;31563;51.744;8.252;2023-03-18T12:26:13;41.40;28.00
45843;DHT22;31563;51.744;8.252;2023-03-18T12:28:53;41.80;27.90
45843;DHT22;31563;51.744;8.252;2023-03-18T12:31:43;42.00;27.70
45843;DHT22;31563;51.744;8.252;2023-03-18T12:34:24;42.20;27.60
45843;DHT22;31563;51.744;8.252;2023-03-18T12:37:08;42.20;27.60
45843;DHT22;31563;51.744;8.252;2023-03-18T12:39:55;42.20;27.60
45843;DHT22;31563;51.744;8.252;2023-03-18T12:42:35;42.20;27.70
45843;DHT22;31563;51.744;8.252;2023-03-18T12:45:09;42.10;27.70
45843;DHT22;31563;51.744;8.252;2023-03-18T12:47:44;42.10;27.80
45843;DHT22;31563;51.744;8.252;2023-03-18T12:50:16;42.10;27.80
45843;DHT22;31563;51.744;8.252;2023-03-18T12:52:48;42.30;27.90
45843;DHT22;31563;51.744;8.252;2023-03-18T12:55:21;42.50;28.00
45843;DHT22;31563;51.744;8.252;2023-03-18T12:57:53;42.60;27.90
45843;DHT22;31563;51.744;8.252;2023-03-18T13:00:28;42.90;27.90
45843;DHT22;31563;51.744;8.252;2023-03-18T13:03:01;43.10;27.80
45843;DHT22;31563;51.744;8.252;2023-03-18T13:05:41;43.30;27.80
45843;DHT22;31563;51.744;8.252;2023-03-18T13:14:41;43.00;27.90
45843;DHT22;31563;51.744;8.252;2023-03-18T13:17:12;42.90;27.90
45843;DHT22;31563;51.744;8.252;2023-03-18T13:19:44;42.80;27.90
45843;DHT22;31563;51.744;8.252;2023-03-18T13:22:29;42.60;28.10
45843;DHT22;31563;51.744;8.252;2023-03-18T13:25:16;42.70;28.30
45843;DHT22;31563;51.744;8.252;2023-03-18T13:27:54;42.70;28.30
45843;DHT22;31563;51.744;8.252;2023-03-18T13:30:30;42.80;28.40
45843;DHT22;31563;51.744;8.252;2023-03-18T13:33:20;42.70;28.30
45843;DHT22;31563;51.744;8.252;2023-03-18T13:36:10;42.60;28.30
45843;DHT22;31563;51.744;8.252;2023-03-18T13:38:53;42.40;28.50
45843;DHT22;31563;51.744;8.252;2023-03-18T13:44:36;42.20;28.60
45843;DHT22;31563;51.744;8.252;2023-03-18T13:47:07;41.90;28.60
45843;DHT22;31563;51.744;8.252;2023-03-18T13:49:37;41.80;28.90
45843;DHT22;31563;51.744;8.252;2023-03-18T13:52:23;41.60;29.00
45843;DHT22;31563;51.744;8.252;2023-03-18T13:54:52;41.40;29.00
45843;DHT22;31563;51.744;8.252;2023-03-18T13:57:53;41.20;29.10
45843;DHT22;31563;51.744;8.252;2023-03-18T14:00:28;40.80;29.20
45843;DHT22;31563;51.744;8.252;2023-03-18T14:03:05;40.60;29.40
45843;DHT22;31563;51.744;8.252;2023-03-18T14:05:40;40.30;29.60
45843;DHT22;31563;51.744;8.252;2023-03-18T14:08:45;40.10;29.70
45843;DHT22;31563;51.744;8.252;2023-03-18T14:11:42;39.80;29.60
45843;DHT22;31563;51.744;8.252;2023-03-18T14:14:38;39.60;30.00
45843;DHT22;31563;51.744;8.252;2023-03-18T14:17:21;39.30;30.10
45843;DHT22;31563;51.744;8.252;2023-03-18T14:19:55;39.00;30.20
45843;DHT22;31563;51.744;8.252;2023-03-18T14:22:27;38.90;31.20
45843;DHT22;31563;51.744;8.252;2023-03-18T14:25:19;38.70;30.70
45843;DHT22;31563;51.744;8.252;2023-03-18T14:27:51;38.40;30.90
45843;DHT22;31563;51.744;8.252;2023-03-18T14:30:43;38.30;31.10
45843;DHT22;31563;51.744;8.252;2023-03-18T14:33:33;38.10;31.20
45843;DHT22;31563;51.744;8.252;2023-03-18T14:36:07;38.00;31.40
45843;DHT22;31563;51.744;8.252;2023-03-18T14:38:47;38.10;31.70
45843;DHT22;31563;51.744;8.252;2023-03-18T14:41:20;38.40;31.80
45843;DHT22;31563;51.744;8.252;2023-03-18T14:44:02;39.10;31.80
45843;DHT22;31563;51.744;8.252;2023-03-18T14:46:38;40.20;31.20
45843;DHT22;31563;51.744;8.252;2023-03-18T14:49:31;41.20;30.60
45843;DHT22;31563;51.744;8.252;2023-03-18T14:52:05;42.00;29.90
45843;DHT22;31563;51.744;8.252;2023-03-18T14:54:40;42.20;29.50
45843;DHT22;31563;51.744;8.252;2023-03-18T14:57:13;42.10;29.20
45843;DHT22;31563;51.744;8.252;2023-03-18T14:59:42;42.00;29.10
45843;DHT22;31563;51.744;8.252;2023-03-18T15:02:21;41.70;29.00
45843;DHT22;31563;51.744;8.252;2023-03-18T15:04:51;41.20;29.20
45843;DHT22;31563;51.744;8.252;2023-03-18T15:07:23;41.10;29.60
45843;DHT22;31563;51.744;8.252;2023-03-18T15:09:52;41.30;29.90
45843;DHT22;31563;51.744;8.252;2023-03-18T15:12:26;41.90;29.80
45843;DHT22;31563;51.744;8.252;2023-03-18T15:14:55;42.60;29.60
45843;DHT22;31563;51.744;8.252;2023-03-18T15:17:24;42.60;28.70
45843;DHT22;31563;51.744;8.252;2023-03-18T15:19:55;42.00;28.70
45843;DHT22;31563;51.744;8.252;2023-03-18T15:22:28;41.50;29.00
45843;DHT22;31563;51.744;8.252;2023-03-18T15:24:59;40.90;29.20
45843;DHT22;31563;51.744;8.252;2023-03-18T15:27:31;40.50;29.70
45843;DHT22;31563;51.744;8.252;2023-03-18T15:30:01;40.20;30.00
45843;DHT22;31563;51.744;8.252;2023-03-18T15:32:41;40.20;30.50
45843;DHT22;31563;51.744;8.252;2023-03-18T15:35:14;40.50;30.10
45843;DHT22;31563;51.744;8.252;2023-03-18T15:37:45;41.10;30.40
45843;DHT22;31563;51.744;8.252;2023-03-18T15:40:25;41.80;29.90
45843;DHT22;31563;51.744;8.252;2023-03-18T15:43:02;41.90;29.30
45843;DHT22;31563;51.744;8.252;2023-03-18T15:45:31;41.30;29.20
45843;DHT22;31563;51.744;8.252;2023-03-18T15:48:04;40.70;29.60
45843;DHT22;31563;51.744;8.252;2023-03-18T15:50:35;40.10;29.80
45843;DHT22;31563;51.744;8.252;2023-03-18T15:53:14;39.70;30.20
45843;DHT22;31563;51.744;8.252;2023-03-18T15:55:49;39.20;30.40
45843;DHT22;31563;51.744;8.252;2023-03-18T15:58:23;38.80;30.90
45843;DHT22;31563;51.744;8.252;2023-03-18T16:00:53;38.50;31.20
45843;DHT22;31563;51.744;8.252;2023-03-18T16:03:23;38.10;31.50
45843;DHT22;31563;51.744;8.252;2023-03-18T16:05:52;37.90;31.90
45843;DHT22;31563;51.744;8.252;2023-03-18T16:08:21;37.60;32.10
45843;DHT22;31563;51.744;8.252;2023-03-18T16:10:52;37.30;32.20
45843;DHT22;31563;51.744;8.252;2023-03-18T16:13:25;37.20;32.50
45843;DHT22;31563;51.744;8.252;2023-03-18T16:15:55;36.90;32.70